createdAt,value
2023-02-13T00:00:22.656Z,34.50
2023-02-13T00:02:50.021Z,34.30
2023-02-13T00:05:17.104Z,34.50
2023-02-13T00:07:43.837Z,35.60
2023-02-13T00:10:10.951Z,34.60
2023-02-13T00:12:37.706Z,34.60
2023-02-13T00:15:05.389Z,34.60
2023-02-13T00:17:32.787Z,34.30
2023-02-13T00:20:00.137Z,34.00
2023-02-13T00:22:27.193Z,34.10
2023-02-13T00:24:54.927Z,34.10
2023-02-13T00:27:21.679Z,34.00
2023-02-13T00:29:48.435Z,34.00
2023-02-13T00:32:15.347Z,34.20
2023-02-13T00:34:44.060Z,34.10
2023-02-13T00:37:10.964Z,34.10
2023-02-13T00:39:38.702Z,34.00
2023-02-13T00:42:06.201Z,34.80
2023-02-13T00:44:33.094Z,34.20
2023-02-13T00:46:59.836Z,36.60
2023-02-13T00:49:26.572Z,38.20
2023-02-13T00:51:53.309Z,39.70
2023-02-13T00:54:20.275Z,39.80
2023-02-13T00:56:47.154Z,40.00
2023-02-13T00:59:14.101Z,41.00
2023-02-13T01:01:40.978Z,42.30
2023-02-13T01:04:07.845Z,45.20
2023-02-13T01:06:34.811Z,47.40
2023-02-13T01:09:03.596Z,50.20
2023-02-13T01:11:30.444Z,50.80
2023-02-13T01:13:57.189Z,49.30
2023-02-13T01:16:24.059Z,48.60
2023-02-13T01:18:50.956Z,47.50
2023-02-13T01:21:20.524Z,46.00
2023-02-13T01:23:47.653Z,45.90
2023-02-13T01:26:21.085Z,44.80
2023-02-13T01:28:48.092Z,44.70
2023-02-13T01:31:14.937Z,44.00
2023-02-13T01:33:41.902Z,43.20
2023-02-13T01:36:10.776Z,42.60
2023-02-13T01:38:37.692Z,41.60
2023-02-13T01:41:04.743Z,40.70
2023-02-13T01:43:50.257Z,39.50
2023-02-13T01:46:22.465Z,39.30
2023-02-13T01:48:51.268Z,39.30
2023-02-13T01:51:23.726Z,39.20
2023-02-13T01:53:57.822Z,39.40
2023-02-13T01:56:33.634Z,39.20
2023-02-13T01:59:09.661Z,39.30
2023-02-13T02:01:37.903Z,39.20
2023-02-13T02:04:15.998Z,39.20
2023-02-13T02:06:57.097Z,38.60
2023-02-13T02:09:28.580Z,38.20
2023-02-13T02:12:01.203Z,38.00
2023-02-13T02:14:28.394Z,37.30
2023-02-13T02:16:55.870Z,37.10
2023-02-13T02:19:47.272Z,36.70
2023-02-13T02:22:35.759Z,36.30
2023-02-13T02:25:23.040Z,36.10
2023-02-13T02:27:55.750Z,36.00
2023-02-13T02:30:37.676Z,36.00
2023-02-13T02:33:20.063Z,35.70
2023-02-13T02:35:56.792Z,35.60
2023-02-13T02:38:36.025Z,35.50
2023-02-13T02:41:11.946Z,35.30
2023-02-13T02:44:07.810Z,35.20
2023-02-13T02:47:00.252Z,35.20
2023-02-13T02:49:45.967Z,35.30
2023-02-13T02:52:20.122Z,35.30
2023-02-13T02:55:08.712Z,35.20
2023-02-13T02:58:01.258Z,35.30
2023-02-13T03:00:50.582Z,35.10
2023-02-13T03:03:40.087Z,35.60
2023-02-13T03:06:17.232Z,36.00
2023-02-13T03:09:11.225Z,36.10
2023-02-13T03:11:57.883Z,36.00
2023-02-13T03:14:27.285Z,35.60
2023-02-13T03:17:14.605Z,35.60
2023-02-13T03:20:13.911Z,35.90
2023-02-13T03:22:58.011Z,35.60
2023-02-13T03:25:34.249Z,35.40
2023-02-13T03:28:22.736Z,35.50
2023-02-13T03:30:57.274Z,35.60
2023-02-13T03:33:40.591Z,35.60
2023-02-13T03:36:34.902Z,35.70
2023-02-13T03:39:12.731Z,35.70
2023-02-13T03:41:50.458Z,35.80
2023-02-13T03:45:09.407Z,35.80
2023-02-13T03:47:37.232Z,35.80
2023-02-13T03:50:05.885Z,35.90
2023-02-13T03:52:39.245Z,36.00
2023-02-13T03:55:35.069Z,36.00
2023-02-13T03:58:31.256Z,35.80
2023-02-13T04:01:02.424Z,35.80
2023-02-13T04:03:40.907Z,35.90
2023-02-13T04:06:15.660Z,36.00
2023-02-13T04:08:43.125Z,36.00
2023-02-13T04:11:12.937Z,36.00
2023-02-13T04:13:49.280Z,36.10
2023-02-13T04:16:33.737Z,36.10
2023-02-13T04:19:01.320Z,36.10
2023-02-13T04:21:28.238Z,36.40
2023-02-13T04:23:54.968Z,36.70
2023-02-13T04:26:23.298Z,37.10
2023-02-13T04:28:50.201Z,37.30
2023-02-13T04:31:17.124Z,37.10
2023-02-13T04:33:43.977Z,36.90
2023-02-13T04:36:10.678Z,37.10
2023-02-13T04:38:37.494Z,37.40
2023-02-13T04:41:04.284Z,37.10
2023-02-13T04:43:31.098Z,37.40
2023-02-13T04:45:57.913Z,37.50
2023-02-13T04:48:24.761Z,37.90
2023-02-13T04:50:51.464Z,38.10
2023-02-13T04:53:18.177Z,38.20
2023-02-13T04:55:44.954Z,38.10
2023-02-13T04:58:11.877Z,38.20
2023-02-13T05:00:38.678Z,38.20
2023-02-13T05:03:11.078Z,38.30
2023-02-13T05:05:38.970Z,38.60
2023-02-13T05:08:07.293Z,38.60
2023-02-13T05:10:34.638Z,38.70
2023-02-13T05:13:02.303Z,38.60
2023-02-13T05:15:29.364Z,38.80
2023-02-13T05:17:56.081Z,39.00
2023-02-13T05:20:22.917Z,39.40
2023-02-13T05:23:10.599Z,39.50
2023-02-13T05:25:38.866Z,39.70
2023-02-13T05:28:26.520Z,39.60
2023-02-13T05:30:53.566Z,39.60
2023-02-13T05:33:20.329Z,39.60
2023-02-13T05:35:47.037Z,39.70
2023-02-13T05:38:13.834Z,39.80
2023-02-13T05:40:40.746Z,39.80
2023-02-13T05:43:07.502Z,39.80
2023-02-13T05:45:34.230Z,39.80
2023-02-13T05:48:01.107Z,39.80
2023-02-13T05:50:27.972Z,39.90
2023-02-13T05:52:54.744Z,39.90
2023-02-13T05:55:21.714Z,39.90
2023-02-13T05:57:48.494Z,39.90
2023-02-13T06:00:16.308Z,40.00
2023-02-13T06:02:43.169Z,39.90
2023-02-13T06:05:09.911Z,40.00
2023-02-13T06:07:36.705Z,40.00
2023-02-13T06:10:03.580Z,40.00
2023-02-13T06:12:30.352Z,39.90
2023-02-13T06:14:57.100Z,38.80
2023-02-13T06:17:23.931Z,39.90
2023-02-13T06:19:50.731Z,39.90
2023-02-13T06:22:17.787Z,39.80
2023-02-13T06:24:44.609Z,40.00
2023-02-13T06:27:11.318Z,39.90
2023-02-13T06:29:38.023Z,39.90
2023-02-13T06:32:04.860Z,40.00
2023-02-13T06:34:31.662Z,40.00
2023-02-13T06:36:59.426Z,40.70
2023-02-13T06:39:26.133Z,41.20
2023-02-13T06:41:52.903Z,41.10
2023-02-13T06:44:19.821Z,41.30
2023-02-13T06:46:47.789Z,41.30
2023-02-13T06:49:14.766Z,41.30
2023-02-13T06:51:41.490Z,41.60
2023-02-13T06:54:08.536Z,41.60
2023-02-13T06:56:35.304Z,41.70
2023-02-13T06:59:01.963Z,41.60
2023-02-13T07:01:28.830Z,42.00
2023-02-13T07:03:55.732Z,42.30
2023-02-13T07:06:22.506Z,42.50
2023-02-13T07:08:51.385Z,42.60
2023-02-13T07:11:23.787Z,42.60
2023-02-13T07:13:50.580Z,42.50
2023-02-13T07:16:17.469Z,42.50
2023-02-13T07:18:44.363Z,42.70
2023-02-13T07:21:11.520Z,42.90
2023-02-13T07:23:38.357Z,43.00
2023-02-13T07:26:05.289Z,43.10
2023-02-13T07:28:32.916Z,43.30
2023-02-13T07:31:05.693Z,44.60
2023-02-13T07:33:34.051Z,43.80
2023-02-13T07:36:03.513Z,43.90
2023-02-13T07:38:31.595Z,44.00
2023-02-13T07:41:02.768Z,43.90
2023-02-13T07:43:29.903Z,44.20
2023-02-13T07:46:01.011Z,44.20
2023-02-13T07:48:29.023Z,44.40
2023-02-13T07:51:00.465Z,44.30
2023-02-13T07:53:27.287Z,44.30
2023-02-13T07:55:53.971Z,44.30
2023-02-13T07:58:20.763Z,44.40
2023-02-13T08:00:47.599Z,44.70
2023-02-13T08:03:14.461Z,44.70
2023-02-13T08:05:41.316Z,44.50
2023-02-13T08:08:08.002Z,45.40
2023-02-13T08:10:53.247Z,45.50
2023-02-13T08:13:20.016Z,45.60
2023-02-13T08:15:47.188Z,45.20
2023-02-13T08:18:13.962Z,45.80
2023-02-13T08:20:40.709Z,45.60
2023-02-13T08:23:10.167Z,45.80
2023-02-13T08:25:38.612Z,45.80
2023-02-13T08:28:06.215Z,45.80
2023-02-13T08:30:32.987Z,45.50
2023-02-13T08:32:59.957Z,45.20
2023-02-13T08:35:29.693Z,45.70
2023-02-13T08:37:57.052Z,45.80
2023-02-13T08:40:25.463Z,45.90
2023-02-13T08:42:52.846Z,45.90
2023-02-13T08:45:19.574Z,45.80
2023-02-13T08:47:46.242Z,47.00
2023-02-13T08:50:13.077Z,45.80
2023-02-13T08:52:39.945Z,45.70
2023-02-13T08:55:06.831Z,46.10
2023-02-13T08:57:33.681Z,46.00
2023-02-13T09:00:00.401Z,46.10
2023-02-13T09:02:27.351Z,46.40
2023-02-13T09:04:54.184Z,46.40
2023-02-13T09:07:21.074Z,46.70
2023-02-13T09:09:47.934Z,46.70
2023-02-13T09:12:14.730Z,46.70
2023-02-13T09:14:41.672Z,46.90
2023-02-13T09:17:08.740Z,47.00
2023-02-13T09:19:35.633Z,47.10
2023-02-13T09:22:02.408Z,49.00
2023-02-13T09:24:29.336Z,48.00
2023-02-13T09:26:56.730Z,48.40
2023-02-13T09:29:25.413Z,47.50
2023-02-13T09:31:53.041Z,47.50
2023-02-13T09:34:20.156Z,48.40
2023-02-13T09:36:51.061Z,47.10
2023-02-13T09:39:18.603Z,46.80
2023-02-13T09:41:48.734Z,47.00
2023-02-13T09:44:38.360Z,47.10
2023-02-13T09:47:28.289Z,46.90
2023-02-13T09:50:11.887Z,46.70
2023-02-13T09:52:39.217Z,47.00
2023-02-13T09:55:22.115Z,46.00
2023-02-13T09:58:00.915Z,47.10
2023-02-13T10:00:40.020Z,47.10
2023-02-13T10:03:32.696Z,47.60
2023-02-13T10:06:08.244Z,47.20
2023-02-13T10:08:44.373Z,46.80
2023-02-13T10:11:29.447Z,46.50
2023-02-13T10:14:16.478Z,46.80
2023-02-13T10:17:07.997Z,46.90
2023-02-13T10:19:46.790Z,46.60
2023-02-13T10:22:17.981Z,46.80
2023-02-13T10:24:56.462Z,47.10
2023-02-13T10:27:26.566Z,47.20
2023-02-13T10:30:05.103Z,46.80
2023-02-13T10:32:41.966Z,46.60
2023-02-13T10:35:31.274Z,46.10
2023-02-13T10:37:59.831Z,45.90
2023-02-13T10:40:40.306Z,46.40
2023-02-13T10:43:15.527Z,46.00
2023-02-13T10:45:57.239Z,45.70
2023-02-13T10:48:27.569Z,45.70
2023-02-13T10:51:03.274Z,46.20
2023-02-13T10:53:52.360Z,45.30
2023-02-13T10:56:43.883Z,45.70
2023-02-13T10:59:24.775Z,45.60
2023-02-13T11:02:01.068Z,47.20
2023-02-13T11:04:29.570Z,45.70
2023-02-13T11:07:02.072Z,45.00
2023-02-13T11:09:32.423Z,44.30
2023-02-13T11:12:08.031Z,45.30
2023-02-13T11:14:34.816Z,45.90
2023-02-13T11:17:05.852Z,45.70
2023-02-13T11:19:37.306Z,45.30
2023-02-13T11:22:26.294Z,44.50
2023-02-13T11:25:00.871Z,44.00
2023-02-13T11:27:32.917Z,44.10
2023-02-13T11:30:06.067Z,44.40
2023-02-13T11:32:34.884Z,44.20
2023-02-13T11:35:27.443Z,44.10
2023-02-13T11:38:20.268Z,43.70
2023-02-13T11:40:49.692Z,42.10
2023-02-13T11:43:53.553Z,43.10
2023-02-13T11:46:25.295Z,42.40
2023-02-13T11:49:01.241Z,43.10
2023-02-13T11:51:46.899Z,41.90
2023-02-13T11:54:22.867Z,41.90
2023-02-13T11:57:05.801Z,42.00
2023-02-13T11:59:41.861Z,42.10
2023-02-13T12:02:49.882Z,42.00
2023-02-13T12:05:25.900Z,42.10
2023-02-13T12:07:58.747Z,42.10
2023-02-13T12:10:28.083Z,42.20
2023-02-13T12:12:57.983Z,42.20
2023-02-13T12:15:36.857Z,42.20
2023-02-13T12:18:38.870Z,42.30
2023-02-13T12:21:24.072Z,42.30
2023-02-13T12:24:24.150Z,42.40
2023-02-13T12:27:01.938Z,40.80
2023-02-13T12:29:49.812Z,40.70
2023-02-13T12:32:28.818Z,40.60
2023-02-13T12:35:20.459Z,41.10
2023-02-13T12:38:04.339Z,39.70
2023-02-13T12:40:44.093Z,39.20
2023-02-13T12:43:16.847Z,39.30
2023-02-13T12:45:58.948Z,39.20
2023-02-13T12:48:51.014Z,38.80
2023-02-13T12:51:38.502Z,38.10
2023-02-13T12:54:29.084Z,38.00
2023-02-13T12:57:08.929Z,37.90
2023-02-13T12:59:51.584Z,37.50
2023-02-13T13:02:21.259Z,36.90
2023-02-13T13:05:13.626Z,37.40
2023-02-13T13:08:08.708Z,37.20
2023-02-13T13:10:56.829Z,35.80
2023-02-13T13:13:47.463Z,36.60
2023-02-13T13:16:27.607Z,36.90
2023-02-13T13:19:08.054Z,37.00
2023-02-13T13:21:52.670Z,36.60
2023-02-13T13:24:41.446Z,36.40
2023-02-13T13:27:20.705Z,35.40
2023-02-13T13:29:55.999Z,35.40
2023-02-13T13:32:23.675Z,34.70
2023-02-13T13:34:51.159Z,34.80
2023-02-13T13:37:30.504Z,35.60
2023-02-13T13:40:42.011Z,34.90
2023-02-13T13:43:20.506Z,35.10
2023-02-13T13:45:57.625Z,35.00
2023-02-13T13:48:59.395Z,35.10
2023-02-13T13:51:26.675Z,34.60
2023-02-13T13:54:03.535Z,36.20
2023-02-13T13:56:49.457Z,35.40
2023-02-13T13:59:37.595Z,35.60
2023-02-13T14:02:19.738Z,35.30
2023-02-13T14:05:25.928Z,34.40
2023-02-13T14:08:01.772Z,32.90
2023-02-13T14:10:28.684Z,33.80
2023-02-13T14:12:58.665Z,34.80
2023-02-13T14:18:47.162Z,34.30
2023-02-13T14:21:23.222Z,34.60
2023-02-13T14:23:53.031Z,34.60
2023-02-13T14:26:35.212Z,34.40
2023-02-13T14:29:11.065Z,33.70
2023-02-13T14:31:41.524Z,33.90
2023-02-13T14:34:11.317Z,33.40
2023-02-13T14:36:39.589Z,32.50
2023-02-13T14:39:28.884Z,32.60
2023-02-13T14:41:59.804Z,32.40
2023-02-13T14:44:50.815Z,32.40
2023-02-13T14:47:22.752Z,31.70
2023-02-13T14:49:51.347Z,31.60
2023-02-13T14:52:27.572Z,31.90
2023-02-13T14:55:01.787Z,31.80
2023-02-13T14:57:38.092Z,31.20
2023-02-13T15:00:19.940Z,30.80
2023-02-13T15:02:51.490Z,31.30
2023-02-13T15:05:20.451Z,30.90
2023-02-13T15:07:49.309Z,30.40
2023-02-13T15:10:42.301Z,30.50
2023-02-13T15:13:18.445Z,30.40
2023-02-13T15:15:51.423Z,31.10
2023-02-13T15:18:24.175Z,31.00
2023-02-13T15:20:56.037Z,30.50
2023-02-13T15:23:26.572Z,30.00
2023-02-13T15:26:20.293Z,30.10
2023-02-13T15:29:17.416Z,29.70
2023-02-13T15:31:51.524Z,29.40
2023-02-13T15:34:25.681Z,30.30
2023-02-13T15:36:53.191Z,30.40
2023-02-13T15:39:26.556Z,30.60
2023-02-13T15:41:59.873Z,30.10
2023-02-13T15:44:30.988Z,30.30
2023-02-13T15:47:31.409Z,30.00
2023-02-13T15:49:58.650Z,29.70
2023-02-13T15:52:38.027Z,29.70
2023-02-13T15:55:05.519Z,29.70
2023-02-13T15:57:33.170Z,29.80
2023-02-13T16:00:01.450Z,29.70
2023-02-13T16:02:40.744Z,29.60
2023-02-13T16:05:11.227Z,29.60
2023-02-13T16:07:50.081Z,29.60
2023-02-13T16:10:35.087Z,29.60
2023-02-13T16:13:15.857Z,29.60
2023-02-13T16:15:43.431Z,29.60
2023-02-13T16:18:18.906Z,29.50
2023-02-13T16:20:45.981Z,29.40
2023-02-13T16:23:19.881Z,29.50
2023-02-13T16:25:48.479Z,29.30
2023-02-13T16:28:20.928Z,29.30
2023-02-13T16:31:00.243Z,29.30
2023-02-13T16:33:35.281Z,29.20
2023-02-13T16:36:11.379Z,29.10
2023-02-13T16:39:02.090Z,29.10
2023-02-13T16:41:31.271Z,29.30
2023-02-13T16:44:00.796Z,28.90
2023-02-13T16:46:36.496Z,29.30
2023-02-13T16:49:06.717Z,29.40
2023-02-13T16:51:38.460Z,29.90
2023-02-13T16:54:11.434Z,30.10
2023-02-13T16:56:51.398Z,30.50
2023-02-13T16:59:24.459Z,30.70
2023-02-13T17:02:29.572Z,31.00
2023-02-13T17:05:08.693Z,30.30
2023-02-13T17:07:57.708Z,31.00
2023-02-13T17:10:39.106Z,31.60
2023-02-13T17:13:09.039Z,31.80
2023-02-13T17:15:35.895Z,31.60
2023-02-13T17:18:03.007Z,31.40
2023-02-13T17:20:32.592Z,31.10
2023-02-13T17:23:02.223Z,32.20
2023-02-13T17:25:31.420Z,30.90
2023-02-13T17:28:10.597Z,30.40
2023-02-13T17:30:37.457Z,30.80
2023-02-13T17:33:07.976Z,30.00
2023-02-13T17:35:35.440Z,29.90
2023-02-13T17:38:02.417Z,30.10
2023-02-13T17:40:30.623Z,30.20
2023-02-13T17:42:59.243Z,30.30
2023-02-13T17:45:29.298Z,30.40
2023-02-13T17:47:57.751Z,30.30
2023-02-13T17:50:29.245Z,30.00
2023-02-13T17:52:57.109Z,29.90
2023-02-13T17:55:29.595Z,29.90
2023-02-13T17:57:57.843Z,30.00
2023-02-13T18:00:28.047Z,30.10
2023-02-13T18:02:55.529Z,30.10
2023-02-13T18:05:22.571Z,30.00
2023-02-13T18:07:49.709Z,30.00
2023-02-13T18:10:23.171Z,30.00
2023-02-13T18:12:51.214Z,30.00
2023-02-13T18:15:18.910Z,29.90
2023-02-13T18:17:46.493Z,29.90
2023-02-13T18:20:16.990Z,29.90
2023-02-13T18:22:44.068Z,30.00
2023-02-13T18:25:11.415Z,30.20
2023-02-13T18:27:38.284Z,29.20
2023-02-13T18:30:06.547Z,30.00
2023-02-13T18:32:33.534Z,30.00
2023-02-13T18:35:01.071Z,30.20
2023-02-13T18:37:40.497Z,30.20
2023-02-13T18:40:08.843Z,30.70
2023-02-13T18:42:36.045Z,30.20
2023-02-13T18:45:03.632Z,30.70
2023-02-13T18:47:30.698Z,31.00
2023-02-13T18:49:57.616Z,31.00
2023-02-13T18:52:24.530Z,31.10
2023-02-13T18:54:51.622Z,31.00
2023-02-13T18:57:18.412Z,30.90
2023-02-13T18:59:45.306Z,31.00
2023-02-13T19:02:12.318Z,30.80
2023-02-13T19:04:39.447Z,31.10
2023-02-13T19:07:06.335Z,31.20
2023-02-13T19:09:33.161Z,31.20
2023-02-13T19:11:59.859Z,32.00
2023-02-13T19:14:26.963Z,31.30
2023-02-13T19:16:53.868Z,31.60
2023-02-13T19:19:20.963Z,31.50
2023-02-13T19:21:47.852Z,32.00
2023-02-13T19:24:18.531Z,31.50
2023-02-13T19:26:45.341Z,31.50
2023-02-13T19:29:12.069Z,32.90
2023-02-13T19:31:38.893Z,32.00
2023-02-13T19:34:05.823Z,32.20
2023-02-13T19:36:33.034Z,32.40
2023-02-13T19:39:03.858Z,32.60
2023-02-13T19:41:30.975Z,32.50
2023-02-13T19:43:58.420Z,32.70
2023-02-13T19:46:30.701Z,32.90
2023-02-13T19:48:58.712Z,32.90
2023-02-13T19:51:30.950Z,32.80
2023-02-13T19:54:08.795Z,32.70
2023-02-13T19:56:37.592Z,32.30
2023-02-13T19:59:06.830Z,32.50
2023-02-13T20:01:33.796Z,32.20
2023-02-13T20:04:00.798Z,32.20
2023-02-13T20:06:35.720Z,32.40
2023-02-13T20:09:06.994Z,32.90
2023-02-13T20:11:33.893Z,33.80
2023-02-13T20:14:00.830Z,32.60
2023-02-13T20:16:32.793Z,32.70
2023-02-13T20:19:06.986Z,32.70
2023-02-13T20:21:34.981Z,32.80
2023-02-13T20:24:05.239Z,33.00
2023-02-13T20:26:32.110Z,32.70
2023-02-13T20:28:59.756Z,32.80
2023-02-13T20:31:27.793Z,32.80
2023-02-13T20:33:55.085Z,33.00
2023-02-13T20:36:24.917Z,32.90
2023-02-13T20:38:55.927Z,32.80
2023-02-13T20:41:25.942Z,32.70
2023-02-13T20:43:53.207Z,32.80
2023-02-13T20:46:20.026Z,32.70
2023-02-13T20:48:48.178Z,32.40
2023-02-13T20:51:16.566Z,33.30
2023-02-13T20:53:44.192Z,33.30
2023-02-13T20:56:15.665Z,33.40
2023-02-13T20:58:44.238Z,33.50
2023-02-13T21:01:23.380Z,33.60
2023-02-13T21:03:55.001Z,33.60
2023-02-13T21:06:31.338Z,33.50
2023-02-13T21:08:58.713Z,33.70
2023-02-13T21:11:28.224Z,33.60
2023-02-13T21:13:56.847Z,33.30
2023-02-13T21:16:26.150Z,33.10
2023-02-13T21:18:56.084Z,32.90
2023-02-13T21:21:24.405Z,33.10
2023-02-13T21:23:56.266Z,33.20
2023-02-13T21:26:24.072Z,33.20
2023-02-13T21:28:51.870Z,33.30
2023-02-13T21:31:25.550Z,33.10
2023-02-13T21:33:52.751Z,33.00
2023-02-13T21:36:19.798Z,33.30
2023-02-13T21:38:46.537Z,33.00
2023-02-13T21:41:18.374Z,33.00
2023-02-13T21:43:48.851Z,32.80
2023-02-13T21:46:27.454Z,32.80
2023-02-13T21:48:59.935Z,33.00
2023-02-13T21:51:28.968Z,33.30
2023-02-13T21:53:56.334Z,33.30
2023-02-13T21:56:25.947Z,32.90
2023-02-13T21:58:53.261Z,32.80
2023-02-13T22:01:35.038Z,33.00
2023-02-13T22:04:04.374Z,33.00
2023-02-13T22:06:33.122Z,33.00
2023-02-13T22:09:03.611Z,32.90
2023-02-13T22:11:30.920Z,33.00
2023-02-13T22:14:02.966Z,33.40
2023-02-13T22:16:30.862Z,33.40
2023-02-13T22:18:58.181Z,33.50
2023-02-13T22:21:27.070Z,33.50
2023-02-13T22:23:54.103Z,33.50
2023-02-13T22:26:27.098Z,33.40
2023-02-13T22:28:55.188Z,33.40
2023-02-13T22:31:25.371Z,33.40
2023-02-13T22:34:05.309Z,33.40
2023-02-13T22:36:34.003Z,33.60
2023-02-13T22:39:01.083Z,33.30
2023-02-13T22:41:28.474Z,33.50
2023-02-13T22:43:55.499Z,33.70
2023-02-13T22:46:25.517Z,33.70
2023-02-13T22:48:53.388Z,33.80
2023-02-13T22:51:23.427Z,33.70
2023-02-13T22:53:53.703Z,33.80
2023-02-13T22:56:20.724Z,33.50
2023-02-13T22:58:47.486Z,33.90
2023-02-13T23:01:17.025Z,33.90
2023-02-13T23:03:44.213Z,33.90
2023-02-13T23:06:12.616Z,34.00
2023-02-13T23:08:40.431Z,34.00
2023-02-13T23:11:28.166Z,34.00
2023-02-13T23:13:55.080Z,33.90
2023-02-13T23:16:21.846Z,33.60
2023-02-13T23:18:53.922Z,33.60
2023-02-13T23:21:20.835Z,33.80
2023-02-13T23:23:47.947Z,34.00
2023-02-13T23:26:15.505Z,34.30
2023-02-13T23:28:42.560Z,34.20
2023-02-13T23:31:09.546Z,34.20
2023-02-13T23:33:36.475Z,34.00
2023-02-13T23:36:03.450Z,34.00
2023-02-13T23:38:30.550Z,34.00
2023-02-13T23:40:57.746Z,34.10
2023-02-13T23:43:24.728Z,34.20
2023-02-13T23:45:51.411Z,34.20
2023-02-13T23:48:18.082Z,34.00
2023-02-13T23:50:44.909Z,34.10
2023-02-13T23:53:11.711Z,34.10
2023-02-13T23:55:38.404Z,34.30
2023-02-13T23:58:05.165Z,34.30
